createdAt,value
2024-03-08T00:00:15.163Z,101466.72
2024-03-08T00:03:04.459Z,101457.09
2024-03-08T00:05:31.600Z,101459.75
2024-03-08T00:07:59.070Z,101418.53
2024-03-08T00:10:28.261Z,101435.16
2024-03-08T00:12:56.053Z,101418.53
2024-03-08T00:15:24.424Z,101411.50
2024-03-08T00:17:52.031Z,101427.28
2024-03-08T00:20:20.046Z,101407.94
2024-03-08T00:22:47.984Z,101429.06
2024-03-08T00:25:19.070Z,101418.50
2024-03-08T00:27:46.716Z,101436.94
2024-03-08T00:30:16.647Z,101442.19
2024-03-08T00:32:44.368Z,101422.94
2024-03-08T00:35:12.616Z,101400.16
2024-03-08T00:37:40.176Z,101429.94
2024-03-08T00:40:10.635Z,101409.78
2024-03-08T00:42:39.750Z,101436.97
2024-03-08T00:45:07.362Z,101424.69
2024-03-08T00:47:34.876Z,101411.50
2024-03-08T00:50:05.337Z,101402.72
2024-03-08T00:52:33.005Z,101412.44
2024-03-08T00:55:00.048Z,101430.00
2024-03-08T00:57:27.496Z,101392.25
2024-03-08T00:59:54.589Z,101404.53
2024-03-08T01:02:22.673Z,101400.13
2024-03-08T01:04:50.118Z,101386.94
2024-03-08T01:07:17.551Z,101386.06
2024-03-08T01:09:44.600Z,101374.66
2024-03-08T01:12:12.425Z,101429.06
2024-03-08T01:14:39.711Z,101381.66
2024-03-08T01:17:07.138Z,101429.91
2024-03-08T01:19:34.440Z,101431.66
2024-03-08T01:22:01.831Z,101422.00
2024-03-08T01:24:29.552Z,101379.03
2024-03-08T01:26:56.957Z,101419.38
2024-03-08T01:29:24.171Z,101383.38
2024-03-08T01:31:53.787Z,101422.88
2024-03-08T01:34:20.989Z,101417.59
2024-03-08T01:36:50.057Z,101421.06
2024-03-08T01:39:18.418Z,101397.34
2024-03-08T01:41:46.025Z,101419.31
2024-03-08T01:44:16.988Z,101403.47
2024-03-08T01:46:49.401Z,101422.78
2024-03-08T01:49:19.522Z,101379.78
2024-03-08T01:51:47.248Z,101363.13
2024-03-08T01:54:17.434Z,101421.00
2024-03-08T01:56:44.885Z,101379.78
2024-03-08T01:59:12.032Z,101433.25
2024-03-08T02:01:39.596Z,101363.97
2024-03-08T02:04:08.449Z,101426.25
2024-03-08T02:06:35.907Z,101397.25
2024-03-08T02:09:07.240Z,101406.91
2024-03-08T02:11:37.640Z,101427.97
2024-03-08T02:14:07.587Z,101375.34
2024-03-08T02:16:35.155Z,101392.91
2024-03-08T02:19:02.314Z,101377.06
2024-03-08T02:21:31.060Z,101420.09
2024-03-08T02:23:58.623Z,101402.53
2024-03-08T02:26:26.061Z,101420.13
2024-03-08T02:28:53.094Z,101386.72
2024-03-08T02:31:20.784Z,101409.56
2024-03-08T02:33:48.769Z,101395.44
2024-03-08T02:36:17.619Z,101362.13
2024-03-08T02:38:44.873Z,101391.94
2024-03-08T02:41:13.535Z,101393.69
2024-03-08T02:43:40.676Z,101400.69
2024-03-08T02:46:08.295Z,101388.41
2024-03-08T02:48:38.070Z,101402.44
2024-03-08T02:51:06.700Z,101391.94
2024-03-08T02:53:33.764Z,101406.88
2024-03-08T02:56:01.110Z,101421.72
2024-03-08T02:58:28.339Z,101409.44
2024-03-08T03:00:58.746Z,101365.56
2024-03-08T03:03:25.848Z,101377.81
2024-03-08T03:05:56.958Z,101390.06
2024-03-08T03:08:25.011Z,101388.31
2024-03-08T03:10:52.826Z,101372.50
2024-03-08T03:13:20.925Z,101368.09
2024-03-08T03:15:48.441Z,101349.75
2024-03-08T03:18:16.945Z,101362.81
2024-03-08T03:20:47.950Z,101361.94
2024-03-08T03:23:21.865Z,101407.59
2024-03-08T03:25:49.551Z,101403.25
2024-03-08T03:28:18.995Z,101412.81
2024-03-08T03:30:47.946Z,101352.28
2024-03-08T03:33:16.806Z,101392.63
2024-03-08T03:35:45.384Z,101337.38
2024-03-08T03:38:12.804Z,101377.69
2024-03-08T03:40:41.799Z,101400.50
2024-03-08T03:43:11.115Z,101396.13
2024-03-08T03:45:43.033Z,101406.63
2024-03-08T03:48:12.533Z,101400.47
2024-03-08T03:50:41.726Z,101397.00
2024-03-08T03:53:10.381Z,101405.66
2024-03-08T03:55:40.657Z,101410.97
2024-03-08T03:58:09.119Z,101403.09
2024-03-08T04:00:36.951Z,101388.13
2024-03-08T04:03:06.261Z,101392.50
2024-03-08T04:05:33.902Z,101402.16
2024-03-08T04:08:00.933Z,101410.09
2024-03-08T04:10:28.239Z,101402.97
2024-03-08T04:12:55.253Z,101370.56
2024-03-08T04:15:22.650Z,101413.53
2024-03-08T04:17:49.871Z,101385.41
2024-03-08T04:20:18.952Z,101393.34
2024-03-08T04:22:48.338Z,101397.78
2024-03-08T04:25:16.249Z,101393.41
2024-03-08T04:27:43.471Z,101406.56
2024-03-08T04:30:11.469Z,101393.41
2024-03-08T04:32:39.384Z,101406.56
2024-03-08T04:35:07.803Z,101408.34
2024-03-08T04:37:35.379Z,101400.44
2024-03-08T04:40:02.879Z,101389.88
2024-03-08T04:42:31.479Z,101375.84
2024-03-08T04:44:59.478Z,101364.34
2024-03-08T04:47:26.971Z,101419.59
2024-03-08T04:49:55.975Z,101414.34
2024-03-08T04:52:23.693Z,101434.47
2024-03-08T04:54:51.421Z,101383.53
2024-03-08T04:57:22.721Z,101430.97
2024-03-08T04:59:50.247Z,101435.31
2024-03-08T05:05:02.240Z,101403.75
2024-03-08T05:10:11.173Z,101437.94
2024-03-08T05:12:39.991Z,101413.41
2024-03-08T05:15:08.917Z,101413.34
2024-03-08T05:17:41.929Z,101426.53
2024-03-08T05:20:13.757Z,101451.16
2024-03-08T05:22:43.797Z,101425.69
2024-03-08T05:25:11.936Z,101458.19
2024-03-08T05:27:39.263Z,101417.75
2024-03-08T05:30:09.390Z,101411.63
2024-03-08T05:32:36.924Z,101441.47
2024-03-08T05:35:08.478Z,101430.09
2024-03-08T05:37:45.668Z,101459.09
2024-03-08T05:40:27.644Z,101449.38
2024-03-08T05:42:55.699Z,101443.22
2024-03-08T05:45:25.163Z,101404.66
2024-03-08T05:47:56.027Z,101419.53
2024-03-08T05:50:23.515Z,101437.16
2024-03-08T05:52:51.864Z,101451.25
2024-03-08T05:58:04.611Z,101459.06
2024-03-08T06:00:32.624Z,101420.44
2024-03-08T06:03:00.617Z,101438.88
2024-03-08T06:05:27.810Z,101458.16
2024-03-08T06:07:55.516Z,101449.41
2024-03-08T06:10:33.569Z,101466.16
2024-03-08T06:13:13.580Z,101467.03
2024-03-08T06:15:44.772Z,101477.56
2024-03-08T06:18:13.270Z,101446.06
2024-03-08T06:23:26.317Z,101469.84
2024-03-08T06:25:54.701Z,101464.66
2024-03-08T06:28:22.233Z,101440.97
2024-03-08T06:30:49.371Z,101440.09
2024-03-08T06:33:19.345Z,101459.38
2024-03-08T06:35:46.665Z,101451.53
2024-03-08T06:38:18.305Z,101416.50
2024-03-08T06:40:45.407Z,101457.88
2024-03-08T06:43:15.705Z,101443.03
2024-03-08T06:45:51.684Z,101426.41
2024-03-08T07:48:19.287Z,101417.19
2024-03-08T07:50:47.697Z,101473.31
2024-03-08T07:53:20.148Z,101437.41
2024-03-08T07:55:53.320Z,101460.19
2024-03-08T07:58:20.596Z,101421.66
2024-03-08T08:00:48.044Z,101429.50
2024-03-08T08:03:15.624Z,101466.34
2024-03-08T08:05:44.979Z,101463.72
2024-03-08T08:08:12.801Z,101455.81
2024-03-08T08:11:11.728Z,101434.75
2024-03-08T08:14:06.473Z,101439.91
2024-03-08T08:16:34.093Z,101434.56
2024-03-08T08:19:01.139Z,101447.69
2024-03-08T08:21:29.005Z,101424.97
2024-03-08T08:23:59.216Z,101427.59
2024-03-08T08:26:35.764Z,101416.22
2024-03-08T08:29:07.137Z,101417.13
2024-03-08T08:31:35.019Z,101438.03
2024-03-08T08:34:02.268Z,101420.50
2024-03-08T08:36:31.168Z,101400.28
2024-03-08T08:38:59.675Z,101417.75
2024-03-08T08:41:27.908Z,101394.19
2024-03-08T08:44:03.474Z,101446.69
2024-03-08T08:46:42.083Z,101437.78
2024-03-08T08:49:12.148Z,101433.03
2024-03-08T08:51:44.464Z,101400.22
2024-03-08T08:54:16.840Z,101410.06
2024-03-08T08:56:57.000Z,101400.50
2024-03-08T08:59:27.724Z,101380.25
2024-03-08T09:01:55.389Z,101356.94
2024-03-08T09:04:24.819Z,101396.56
2024-03-08T09:06:55.226Z,101393.25
2024-03-08T09:09:33.329Z,101416.94
2024-03-08T09:12:14.628Z,101388.91
2024-03-08T09:14:42.653Z,101416.00
2024-03-08T09:17:13.515Z,101417.66
2024-03-08T09:19:41.168Z,101416.91
2024-03-08T09:22:08.905Z,101409.84
2024-03-08T09:24:38.878Z,101376.28
2024-03-08T09:27:12.889Z,101376.53
2024-03-08T09:29:40.062Z,101377.97
2024-03-08T09:32:12.225Z,101364.38
2024-03-08T09:34:39.458Z,101385.94
2024-03-08T09:37:07.275Z,101414.94
2024-03-08T09:39:35.075Z,101371.00
2024-03-08T09:42:03.562Z,101409.44
2024-03-08T09:44:31.253Z,101346.78
2024-03-08T09:47:03.770Z,101367.16
2024-03-08T09:49:31.518Z,101362.97
2024-03-08T09:52:01.771Z,101362.13
2024-03-08T09:54:29.633Z,101358.47
2024-03-08T09:57:05.418Z,101404.13
2024-03-08T09:59:38.343Z,101369.13
2024-03-08T10:02:14.322Z,101337.09
2024-03-08T10:04:47.073Z,101410.00
2024-03-08T10:07:17.107Z,101368.91
2024-03-08T10:09:51.613Z,101391.41
2024-03-08T10:12:20.786Z,101383.94
2024-03-08T10:14:51.105Z,101381.31
2024-03-08T10:17:21.816Z,101366.41
2024-03-08T10:19:56.319Z,101349.78
2024-03-08T10:25:10.922Z,101371.94
2024-03-08T10:27:40.895Z,101357.25
2024-03-08T10:30:14.093Z,101360.75
2024-03-08T10:32:42.620Z,101346.66
2024-03-08T10:35:10.803Z,101322.41
2024-03-08T10:37:45.446Z,101362.84
2024-03-08T10:40:18.946Z,101360.09
2024-03-08T10:43:13.050Z,101365.75
2024-03-08T10:45:46.174Z,101297.97
2024-03-08T10:48:40.171Z,101360.13
2024-03-08T10:51:09.559Z,101328.03
2024-03-08T10:53:43.200Z,101355.50
2024-03-08T10:56:13.051Z,101300.00
2024-03-08T10:58:42.326Z,101324.31
2024-03-08T11:01:11.592Z,101354.09
2024-03-08T11:06:44.192Z,101318.59
2024-03-08T11:09:39.081Z,101334.22
2024-03-08T11:12:38.672Z,101329.66
2024-03-08T11:15:23.192Z,101296.91
2024-03-08T11:17:52.324Z,101327.53
2024-03-08T11:20:25.749Z,101293.94
2024-03-08T11:23:02.340Z,101296.59
2024-03-08T11:25:48.119Z,101319.88
2024-03-08T11:28:18.619Z,101290.63
2024-03-08T11:31:01.184Z,101319.19
2024-03-08T11:33:30.592Z,101267.41
2024-03-08T11:36:12.849Z,101313.97
2024-03-08T11:38:56.447Z,101294.69
2024-03-08T11:41:24.923Z,101279.78
2024-03-08T11:44:11.465Z,101281.66
2024-03-08T11:46:41.549Z,101285.69
2024-03-08T11:49:21.996Z,101285.03
2024-03-08T11:51:55.242Z,101278.97
2024-03-08T11:54:25.746Z,101290.22
2024-03-08T11:56:59.950Z,101280.47
2024-03-08T11:59:31.918Z,101285.78
2024-03-08T12:02:06.885Z,101297.97
2024-03-08T12:04:43.578Z,101275.13
2024-03-08T12:07:15.553Z,101288.19
2024-03-08T12:09:48.196Z,101273.50
2024-03-08T12:12:18.408Z,101281.34
2024-03-08T12:14:48.843Z,101270.84
2024-03-08T12:17:17.692Z,101275.91
2024-03-08T12:19:48.510Z,101284.69
2024-03-08T12:22:16.361Z,101282.53
2024-03-08T12:24:51.913Z,101295.63
2024-03-08T12:27:21.484Z,101286.81
2024-03-08T12:29:52.889Z,101275.56
2024-03-08T12:32:20.559Z,101279.13
2024-03-08T12:34:55.913Z,101248.53
2024-03-08T12:37:24.982Z,101280.19
2024-03-08T12:39:57.161Z,101287.19
2024-03-08T12:42:25.846Z,101273.41
2024-03-08T12:44:56.486Z,101262.16
2024-03-08T12:47:26.199Z,101281.41
2024-03-08T12:49:55.206Z,101252.31
2024-03-08T12:52:26.569Z,101267.97
2024-03-08T12:54:57.089Z,101203.22
2024-03-08T12:57:26.299Z,101259.22
2024-03-08T12:59:56.803Z,101240.69
2024-03-08T13:02:28.568Z,101211.78
2024-03-08T13:04:58.969Z,101246.75
2024-03-08T13:07:29.555Z,101226.66
2024-03-08T13:12:53.691Z,101258.09
2024-03-08T13:15:24.043Z,101219.41
2024-03-08T13:17:51.690Z,101226.22
2024-03-08T13:23:03.586Z,101253.81
2024-03-08T13:25:32.773Z,101254.97
2024-03-08T13:28:01.921Z,101232.19
2024-03-08T13:30:30.291Z,101221.69
2024-03-08T13:33:00.024Z,101227.09
2024-03-08T13:35:28.621Z,101229.78
2024-03-08T13:37:56.114Z,101213.97
2024-03-08T13:40:23.960Z,101225.19
2024-03-08T13:42:51.181Z,101213.56
2024-03-08T13:45:24.050Z,101197.81
2024-03-08T13:47:58.212Z,101246.00
2024-03-08T13:50:31.438Z,101229.44
2024-03-08T13:52:58.592Z,101244.34
2024-03-08T13:55:28.407Z,101209.13
2024-03-08T13:57:55.997Z,101229.38
2024-03-08T14:00:29.734Z,101245.25
2024-03-08T14:02:57.432Z,101219.91
2024-03-08T14:05:24.935Z,101200.00
2024-03-08T14:07:55.719Z,101227.31
2024-03-08T14:10:24.762Z,101237.84
2024-03-08T14:12:53.021Z,101212.41
2024-03-08T14:15:21.738Z,101238.66
2024-03-08T14:17:56.205Z,101242.09
2024-03-08T14:20:28.173Z,101211.50
2024-03-08T14:23:09.566Z,101228.16
2024-03-08T14:25:38.524Z,101215.97
2024-03-08T14:28:08.588Z,101195.91
2024-03-08T14:30:37.043Z,101222.25
2024-03-08T14:33:12.972Z,101224.78
2024-03-08T14:35:44.758Z,101201.13
2024-03-08T14:38:21.456Z,101213.38
2024-03-08T14:40:49.458Z,101200.28
2024-03-08T14:43:17.812Z,101224.88
2024-03-08T14:45:49.907Z,101204.94
2024-03-08T14:48:20.629Z,101211.06
2024-03-08T14:50:50.230Z,101201.44
2024-03-08T14:53:19.827Z,101210.22
2024-03-08T14:55:48.676Z,101222.50
2024-03-08T14:58:16.536Z,101160.41
2024-03-08T15:00:45.007Z,101191.91
2024-03-08T15:03:14.813Z,101225.19
2024-03-08T15:05:48.645Z,101195.44
2024-03-08T15:08:21.289Z,101195.44
2024-03-08T15:10:55.804Z,101213.75
2024-03-08T15:13:24.656Z,101219.91
2024-03-08T15:15:58.961Z,101204.16
2024-03-08T15:18:32.225Z,101217.25
2024-03-08T15:20:59.847Z,101179.69
2024-03-08T15:23:27.090Z,101207.66
2024-03-08T15:25:54.672Z,101206.84
2024-03-08T15:28:28.159Z,101202.50
2024-03-08T15:30:57.162Z,101227.00
2024-03-08T15:33:28.599Z,101185.91
2024-03-08T15:36:04.116Z,101178.06
2024-03-08T15:38:31.297Z,101211.31
2024-03-08T15:40:58.710Z,101206.94
2024-03-08T15:43:28.421Z,101199.97
2024-03-08T15:45:59.943Z,101192.09
2024-03-08T15:48:27.531Z,101214.00
2024-03-08T15:50:56.640Z,101196.50
2024-03-08T15:53:25.288Z,101233.22
2024-03-08T15:55:52.915Z,101226.22
2024-03-08T15:58:19.991Z,101235.84
2024-03-08T16:00:48.506Z,101223.59
2024-03-08T16:03:16.924Z,101236.75
2024-03-08T16:05:45.788Z,101223.59
2024-03-08T16:08:17.141Z,101241.16
2024-03-08T16:10:50.324Z,101219.25
2024-03-08T16:13:18.835Z,101242.94
2024-03-08T16:15:49.010Z,101239.44
2024-03-08T16:18:22.525Z,101201.81
2024-03-08T16:20:57.268Z,101250.78
2024-03-08T16:23:25.942Z,101219.28
2024-03-08T16:25:56.413Z,101228.03
2024-03-08T16:28:27.238Z,101240.31
2024-03-08T16:30:55.817Z,101203.53
2024-03-08T16:33:23.816Z,101216.69
2024-03-08T16:35:53.009Z,101251.69
2024-03-08T16:38:25.193Z,101217.56
2024-03-08T16:40:53.868Z,101212.31
2024-03-08T16:43:21.184Z,101224.56
2024-03-08T16:45:52.371Z,101227.19
2024-03-08T16:48:20.448Z,101212.31
2024-03-08T16:50:48.095Z,101231.56
2024-03-08T16:53:16.229Z,101227.19
2024-03-08T16:55:44.320Z,101265.72
2024-03-08T16:58:16.300Z,101259.59
2024-03-08T17:00:44.335Z,101219.28
2024-03-08T17:03:13.932Z,101226.28
2024-03-08T17:05:54.940Z,101207.91
2024-03-08T17:08:23.581Z,101234.16
2024-03-08T17:10:51.527Z,101205.28
2024-03-08T17:13:19.981Z,101211.38
2024-03-08T17:15:52.884Z,101258.69
2024-03-08T17:18:23.248Z,101256.94
2024-03-08T17:20:50.690Z,101208.78
2024-03-08T17:23:18.019Z,101220.16
2024-03-08T17:25:47.869Z,101241.16
2024-03-08T17:28:28.314Z,101216.66
2024-03-08T17:30:55.873Z,101226.25
2024-03-08T17:33:26.186Z,101236.78
2024-03-08T17:35:53.991Z,101230.59
2024-03-08T17:38:23.080Z,101247.22
2024-03-08T17:40:50.831Z,101232.34
2024-03-08T17:43:24.843Z,101227.97
2024-03-08T17:45:54.466Z,101260.38
2024-03-08T17:48:22.261Z,101230.59
2024-03-08T17:50:55.594Z,101271.75
2024-03-08T17:53:23.174Z,101249.84
2024-03-08T17:55:53.127Z,101254.22
2024-03-08T17:58:21.477Z,101262.97
2024-03-08T18:00:54.944Z,101221.81
2024-03-08T18:03:29.426Z,101216.56
2024-03-08T18:06:07.011Z,101220.94
2024-03-08T18:08:35.879Z,101230.56
2024-03-08T18:11:04.171Z,101234.03
2024-03-08T18:13:37.096Z,101241.03
2024-03-08T18:16:10.274Z,101266.41
2024-03-08T18:21:42.198Z,101186.72
2024-03-08T18:24:13.436Z,101217.34
2024-03-08T18:26:44.004Z,101265.44
2024-03-08T18:29:12.249Z,101216.38
2024-03-08T18:31:42.066Z,101256.69
2024-03-08T18:34:09.444Z,101267.16
2024-03-08T18:36:37.726Z,101211.91
2024-03-08T18:39:11.557Z,101260.13
2024-03-08T18:41:39.963Z,101266.22
2024-03-08T18:44:07.177Z,101224.16
2024-03-08T18:46:34.826Z,101198.72
2024-03-08T18:49:01.831Z,101227.66
2024-03-08T18:51:31.093Z,101241.66
2024-03-08T18:53:58.325Z,101236.41
2024-03-08T18:56:35.670Z,101222.34
2024-03-08T18:59:04.371Z,101252.13
2024-03-08T19:01:58.686Z,101263.53
2024-03-08T19:04:29.216Z,101236.38
2024-03-08T19:06:57.533Z,101196.06
2024-03-08T19:09:25.002Z,101197.78
2024-03-08T19:11:52.397Z,101234.53
2024-03-08T19:14:20.107Z,101206.50
2024-03-08T19:16:48.472Z,101234.50
2024-03-08T19:19:15.885Z,101251.94
2024-03-08T19:21:43.304Z,101230.84
2024-03-08T19:24:12.942Z,101279.09
2024-03-08T19:26:41.059Z,101256.31
2024-03-08T19:29:12.902Z,101195.78
2024-03-08T19:31:42.636Z,101278.16
2024-03-08T19:34:10.213Z,101246.53
2024-03-08T19:36:38.127Z,101236.88
2024-03-08T19:39:06.592Z,101228.94
2024-03-08T19:41:34.923Z,101253.50
2024-03-08T19:44:04.342Z,101261.34
2024-03-08T19:46:39.072Z,101235.91
2024-03-08T19:49:06.881Z,101228.84
2024-03-08T19:51:35.404Z,101270.09
2024-03-08T19:54:03.420Z,101202.50
2024-03-08T19:56:31.176Z,101236.72
2024-03-08T19:58:59.571Z,101239.25
2024-03-08T20:01:26.773Z,101218.13
2024-03-08T20:03:54.758Z,101253.16
2024-03-08T20:06:22.870Z,101271.44
2024-03-08T20:08:50.592Z,101274.78
2024-03-08T20:11:18.427Z,101242.13
2024-03-08T20:13:48.090Z,101242.88
2024-03-08T20:16:15.446Z,101238.28
2024-03-08T20:18:44.225Z,101262.84
2024-03-08T20:21:11.316Z,101262.72
2024-03-08T20:23:40.905Z,101258.28
2024-03-08T20:26:12.685Z,101228.25
2024-03-08T20:28:43.788Z,101278.25
2024-03-08T20:31:11.908Z,101255.34
2024-03-08T20:37:11.560Z,101241.03
2024-03-08T20:39:47.153Z,101240.06
2024-03-08T20:42:15.315Z,101247.13
2024-03-08T20:44:52.853Z,101224.16
2024-03-08T20:47:23.144Z,101269.78
2024-03-08T20:49:52.757Z,101235.31
2024-03-08T20:52:23.322Z,101231.78
2024-03-08T20:54:51.974Z,101263.31
2024-03-08T20:57:20.205Z,101193.81
2024-03-08T20:59:48.055Z,101265.69
2024-03-08T21:02:17.591Z,101194.44
2024-03-08T21:04:50.118Z,101224.19
2024-03-08T21:07:19.102Z,101210.06
2024-03-08T21:09:46.742Z,101224.03
2024-03-08T21:12:17.830Z,101262.63
2024-03-08T21:14:56.268Z,101259.88
2024-03-08T21:18:11.122Z,101255.50
2024-03-08T21:22:19.778Z,101251.94
2024-03-08T21:25:41.453Z,101252.00
2024-03-08T21:32:27.558Z,101252.84
2024-03-08T21:42:12.161Z,101244.44
2024-03-08T21:48:16.664Z,101246.22
2024-03-08T21:51:58.826Z,101249.66
2024-03-08T21:55:39.069Z,101246.88
2024-03-08T22:02:25.996Z,101241.41
2024-03-08T22:10:32.297Z,101235.19
2024-03-08T22:13:47.677Z,101233.31
2024-03-08T22:28:25.408Z,101237.19
2024-03-08T22:38:59.417Z,101182.13
2024-03-08T22:46:09.357Z,101237.31
2024-03-08T22:55:55.643Z,101225.09
2024-03-08T22:58:23.782Z,101196.88
2024-03-08T23:00:57.921Z,101219.84
2024-03-08T23:03:26.100Z,101231.31
2024-03-08T23:05:53.793Z,101198.06
2024-03-08T23:08:22.026Z,101221.59
2024-03-08T23:10:52.229Z,101218.06
2024-03-08T23:13:20.352Z,101210.78
2024-03-08T23:19:01.308Z,101209.69
2024-03-08T23:21:28.969Z,101219.34
2024-03-08T23:23:58.978Z,101224.56
2024-03-08T23:26:30.984Z,101185.81
2024-03-08T23:29:00.137Z,101161.22
2024-03-08T23:31:37.980Z,101219.16
2024-03-08T23:38:29.512Z,101169.00
2024-03-08T23:40:57.350Z,101156.53
2024-03-08T23:43:26.722Z,101201.56
2024-03-08T23:45:58.891Z,101209.28
2024-03-08T23:48:27.399Z,101208.44
2024-03-08T23:50:55.928Z,101181.19
2024-03-08T23:53:27.036Z,101144.28
2024-03-08T23:55:56.394Z,101185.38
2024-03-08T23:58:24.704Z,101204.63
